createdAt,value
2023-05-10T00:00:44.988Z,7.45
2023-05-10T00:03:12.218Z,9.80
2023-05-10T00:05:39.275Z,8.27
2023-05-10T00:08:06.473Z,8.27
2023-05-10T00:10:33.551Z,7.15
2023-05-10T00:13:00.743Z,9.00
2023-05-10T00:15:27.823Z,9.77
2023-05-10T00:17:54.937Z,7.80
2023-05-10T00:20:22.075Z,8.82
2023-05-10T00:22:49.220Z,8.80
2023-05-10T00:25:16.396Z,10.15
2023-05-10T00:27:43.404Z,8.23
2023-05-10T00:30:11.841Z,7.55
2023-05-10T00:32:38.896Z,10.13
2023-05-10T00:35:06.282Z,8.80
2023-05-10T00:37:33.536Z,9.85
2023-05-10T00:40:00.593Z,8.30
2023-05-10T00:42:27.690Z,8.07
2023-05-10T00:44:55.894Z,8.65
2023-05-10T00:47:23.886Z,8.75
2023-05-10T00:49:51.484Z,7.97
2023-05-10T00:52:18.643Z,9.60
2023-05-10T00:54:45.935Z,9.75
2023-05-10T00:57:13.022Z,7.78
2023-05-10T00:59:40.122Z,11.52
2023-05-10T01:02:07.903Z,12.85
2023-05-10T01:04:36.640Z,11.07
2023-05-10T01:07:03.989Z,11.93
2023-05-10T01:09:31.185Z,9.82
2023-05-10T01:11:58.317Z,9.43
2023-05-10T01:14:26.480Z,9.48
2023-05-10T01:16:54.397Z,8.37
2023-05-10T01:19:25.214Z,8.10
2023-05-10T01:22:29.721Z,7.70
2023-05-10T01:25:35.559Z,8.07
2023-05-10T01:28:40.038Z,7.32
2023-05-10T01:31:34.675Z,8.43
2023-05-10T01:34:17.352Z,8.35
2023-05-10T01:36:58.013Z,10.75
2023-05-10T01:39:38.397Z,10.75
2023-05-10T01:42:11.869Z,12.80
2023-05-10T01:44:47.618Z,9.73
2023-05-10T01:47:34.003Z,7.70
2023-05-10T01:50:05.759Z,11.23
2023-05-10T01:52:42.189Z,9.57
2023-05-10T01:55:21.419Z,8.73
2023-05-10T01:57:52.066Z,9.90
2023-05-10T02:00:20.928Z,9.38
2023-05-10T02:02:50.842Z,7.45
2023-05-10T02:05:19.045Z,8.13
2023-05-10T02:07:47.012Z,7.18
2023-05-10T02:10:15.735Z,6.77
2023-05-10T02:12:47.060Z,8.85
2023-05-10T02:15:19.821Z,8.00
2023-05-10T02:17:48.511Z,8.13
2023-05-10T02:20:17.700Z,7.78
2023-05-10T02:22:47.148Z,7.70
2023-05-10T02:25:15.029Z,9.82
2023-05-10T02:27:44.480Z,5.28
2023-05-10T02:30:12.979Z,7.22
2023-05-10T02:32:40.874Z,9.75
2023-05-10T02:35:09.604Z,6.77
2023-05-10T02:37:38.548Z,6.13
2023-05-10T02:40:07.546Z,8.02
2023-05-10T02:42:38.138Z,5.63
2023-05-10T02:45:12.172Z,8.88
2023-05-10T02:47:39.645Z,6.80
2023-05-10T02:50:07.587Z,8.43
2023-05-10T02:52:44.532Z,8.25
2023-05-10T02:55:16.448Z,6.50
2023-05-10T02:57:52.085Z,7.22
2023-05-10T03:00:19.466Z,7.83
2023-05-10T03:02:46.464Z,5.15
2023-05-10T03:05:13.479Z,8.00
2023-05-10T03:07:40.599Z,7.88
2023-05-10T03:10:08.651Z,6.07
2023-05-10T03:12:59.782Z,8.83
2023-05-10T03:15:48.435Z,5.60
2023-05-10T03:18:45.440Z,11.85
2023-05-10T03:21:14.807Z,14.50
2023-05-10T03:23:46.952Z,10.02
2023-05-10T03:26:33.918Z,21.33
2023-05-10T03:29:09.923Z,7.25
2023-05-10T03:31:37.109Z,7.90
2023-05-10T03:34:04.307Z,8.38
2023-05-10T03:36:31.683Z,7.65
2023-05-10T03:38:59.686Z,6.83
2023-05-10T03:41:27.458Z,6.18
2023-05-10T03:43:55.089Z,6.57
2023-05-10T03:46:22.772Z,6.22
2023-05-10T03:48:49.810Z,7.97
2023-05-10T03:51:16.885Z,7.13
2023-05-10T03:53:44.107Z,12.80
2023-05-10T03:56:11.311Z,10.82
2023-05-10T03:58:38.808Z,9.50
2023-05-10T04:01:05.949Z,8.18
2023-05-10T04:03:33.085Z,8.87
2023-05-10T04:06:03.898Z,7.00
2023-05-10T04:08:31.517Z,6.55
2023-05-10T04:11:08.802Z,8.10
2023-05-10T04:13:36.387Z,7.43
2023-05-10T04:16:03.935Z,8.15
2023-05-10T04:18:31.294Z,9.50
2023-05-10T04:20:58.631Z,6.07
2023-05-10T04:23:25.680Z,8.05
2023-05-10T04:25:52.759Z,7.85
2023-05-10T04:28:19.802Z,8.17
2023-05-10T04:30:49.944Z,7.25
2023-05-10T04:33:16.991Z,7.82
2023-05-10T04:35:45.728Z,7.88
2023-05-10T04:38:12.689Z,10.98
2023-05-10T04:40:39.667Z,21.50
2023-05-10T04:43:06.731Z,7.13
2023-05-10T04:45:33.758Z,7.05
2023-05-10T04:48:00.884Z,6.07
2023-05-10T04:50:27.871Z,6.80
2023-05-10T04:52:56.705Z,9.23
2023-05-10T04:55:23.761Z,5.72
2023-05-10T04:57:50.899Z,7.38
2023-05-10T05:00:18.348Z,6.38
2023-05-10T05:02:48.981Z,8.88
2023-05-10T05:05:16.072Z,9.48
2023-05-10T05:07:43.135Z,10.18
2023-05-10T05:10:10.297Z,7.25
2023-05-10T05:12:37.226Z,7.53
2023-05-10T05:15:04.619Z,7.28
2023-05-10T05:17:32.645Z,6.32
2023-05-10T05:19:59.776Z,11.30
2023-05-10T05:22:29.149Z,6.00
2023-05-10T05:24:57.043Z,6.43
2023-05-10T05:27:25.417Z,11.20
2023-05-10T05:29:54.064Z,8.95
2023-05-10T05:32:21.385Z,9.05
2023-05-10T05:34:49.111Z,5.80
2023-05-10T05:37:17.319Z,9.32
2023-05-10T05:39:44.786Z,5.95
2023-05-10T05:42:12.805Z,11.55
2023-05-10T05:44:40.093Z,8.93
2023-05-10T05:47:07.743Z,11.25
2023-05-10T05:49:34.747Z,9.70
2023-05-10T05:52:02.471Z,8.85
2023-05-10T05:54:29.844Z,7.53
2023-05-10T05:56:59.263Z,8.85
2023-05-10T05:59:28.274Z,7.20
2023-05-10T06:01:55.678Z,6.65
2023-05-10T06:04:22.905Z,10.35
2023-05-10T06:06:49.972Z,9.73
2023-05-10T06:09:17.176Z,9.77
2023-05-10T06:11:44.316Z,6.50
2023-05-10T06:14:11.457Z,7.43
2023-05-10T06:16:38.515Z,5.97
2023-05-10T06:19:05.612Z,7.93
2023-05-10T06:21:32.697Z,7.82
2023-05-10T06:23:59.703Z,10.63
2023-05-10T06:26:26.966Z,4.18
2023-05-10T06:28:54.126Z,9.63
2023-05-10T06:31:21.218Z,8.27
2023-05-10T06:33:48.250Z,8.13
2023-05-10T06:36:15.552Z,6.43
2023-05-10T06:38:42.539Z,4.82
2023-05-10T06:41:09.662Z,6.80
2023-05-10T06:43:36.708Z,6.32
2023-05-10T06:46:03.721Z,7.75
2023-05-10T06:48:30.722Z,6.30
2023-05-10T06:50:57.726Z,4.75
2023-05-10T06:53:25.089Z,7.97
2023-05-10T06:55:52.208Z,7.63
2023-05-10T06:58:19.239Z,11.32
2023-05-10T07:00:47.865Z,9.35
2023-05-10T07:03:15.199Z,11.13
2023-05-10T07:05:42.252Z,8.90
2023-05-10T07:08:09.551Z,11.43
2023-05-10T07:10:36.901Z,8.45
2023-05-10T07:13:04.116Z,6.30
2023-05-10T07:15:31.245Z,6.18
2023-05-10T07:17:58.699Z,6.63
2023-05-10T07:20:25.955Z,5.03
2023-05-10T07:22:52.984Z,5.30
2023-05-10T07:25:20.201Z,5.65
2023-05-10T07:27:49.617Z,9.02
2023-05-10T07:30:16.989Z,6.93
2023-05-10T07:32:44.049Z,6.68
2023-05-10T07:35:11.161Z,8.40
2023-05-10T07:37:38.334Z,6.90
2023-05-10T07:40:05.878Z,7.65
2023-05-10T07:42:32.902Z,9.70
2023-05-10T07:44:59.979Z,6.28
2023-05-10T07:47:27.167Z,10.83
2023-05-10T07:49:54.284Z,6.50
2023-05-10T07:52:22.670Z,21.58
2023-05-10T07:54:50.050Z,10.93
2023-05-10T07:57:18.724Z,20.95
2023-05-10T07:59:46.398Z,5.83
2023-05-10T08:02:13.507Z,6.95
2023-05-10T08:04:40.884Z,10.13
2023-05-10T08:07:08.367Z,5.30
2023-05-10T08:09:35.532Z,5.45
2023-05-10T08:12:02.992Z,11.40
2023-05-10T08:14:31.010Z,8.65
2023-05-10T08:16:58.013Z,6.75
2023-05-10T08:19:25.142Z,8.60
2023-05-10T08:21:58.303Z,6.05
2023-05-10T08:24:25.484Z,6.40
2023-05-10T08:26:52.488Z,7.40
2023-05-10T08:29:19.454Z,5.93
2023-05-10T08:31:46.577Z,6.95
2023-05-10T08:34:13.662Z,6.55
2023-05-10T08:36:40.754Z,4.77
2023-05-10T08:39:16.242Z,6.70
2023-05-10T08:41:55.131Z,6.70
2023-05-10T08:44:22.263Z,6.75
2023-05-10T08:46:54.786Z,6.28
2023-05-10T08:49:22.789Z,8.10
2023-05-10T08:51:56.063Z,5.82
2023-05-10T08:54:24.083Z,5.10
2023-05-10T08:56:51.126Z,6.18
2023-05-10T08:59:18.282Z,5.65
2023-05-10T09:01:57.151Z,6.17
2023-05-10T09:04:24.386Z,5.78
2023-05-10T09:06:51.869Z,4.38
2023-05-10T09:09:20.658Z,3.95
2023-05-10T09:11:48.258Z,3.60
2023-05-10T09:14:16.921Z,4.20
2023-05-10T09:16:44.338Z,3.20
2023-05-10T09:19:11.779Z,4.97
2023-05-10T09:21:39.520Z,5.50
2023-05-10T09:24:08.194Z,12.20
2023-05-10T09:26:36.777Z,6.10
2023-05-10T09:29:04.318Z,6.18
2023-05-10T09:31:57.485Z,4.75
2023-05-10T09:34:35.773Z,6.63
2023-05-10T09:37:05.535Z,6.43
2023-05-10T09:39:33.565Z,6.43
2023-05-10T09:42:04.800Z,4.55
2023-05-10T09:44:33.867Z,7.03
2023-05-10T09:47:04.939Z,4.57
2023-05-10T09:49:32.502Z,8.13
2023-05-10T09:52:03.862Z,5.97
2023-05-10T09:54:31.926Z,8.27
2023-05-10T09:56:59.502Z,6.72
2023-05-10T09:59:31.494Z,7.10
2023-05-10T10:02:04.990Z,5.35
2023-05-10T10:04:41.272Z,7.83
2023-05-10T10:07:08.773Z,8.35
2023-05-10T10:09:36.789Z,8.30
2023-05-10T10:12:05.058Z,14.48
2023-05-10T10:14:32.783Z,5.88
2023-05-10T10:17:08.636Z,9.30
2023-05-10T10:19:38.189Z,8.55
2023-05-10T10:22:07.035Z,8.10
2023-05-10T10:24:34.492Z,9.00
2023-05-10T10:27:21.964Z,6.13
2023-05-10T10:30:01.833Z,7.40
2023-05-10T10:32:50.578Z,8.68
2023-05-10T10:35:21.401Z,13.60
2023-05-10T10:37:51.330Z,6.75
2023-05-10T10:40:36.943Z,6.03
2023-05-10T10:43:28.099Z,5.50
2023-05-10T10:46:16.613Z,8.38
2023-05-10T10:49:11.637Z,7.07
2023-05-10T10:51:42.079Z,6.60
2023-05-10T10:54:13.143Z,9.45
2023-05-10T10:56:40.380Z,7.13
2023-05-10T10:59:10.399Z,8.70
2023-05-10T11:01:37.793Z,7.75
2023-05-10T11:04:05.370Z,10.77
2023-05-10T11:06:33.687Z,8.52
2023-05-10T11:09:13.591Z,8.27
2023-05-10T11:11:56.581Z,11.35
2023-05-10T11:14:24.245Z,8.85
2023-05-10T11:16:51.908Z,7.95
2023-05-10T11:19:20.695Z,23.73
2023-05-10T11:22:19.234Z,7.80
2023-05-10T11:24:59.830Z,8.23
2023-05-10T11:27:27.552Z,9.80
2023-05-10T11:29:55.174Z,7.97
2023-05-10T11:32:23.330Z,9.00
2023-05-10T11:34:50.634Z,9.73
2023-05-10T11:37:19.737Z,6.25
2023-05-10T11:39:48.752Z,5.35
2023-05-10T11:42:16.289Z,8.80
2023-05-10T11:44:45.510Z,8.68
2023-05-10T11:47:13.522Z,5.63
2023-05-10T11:49:44.524Z,6.90
2023-05-10T11:52:14.644Z,8.55
2023-05-10T11:54:57.574Z,5.15
2023-05-10T11:57:28.114Z,5.47
2023-05-10T11:59:56.344Z,7.47
2023-05-10T12:02:23.921Z,6.72
2023-05-10T12:04:52.293Z,8.43
2023-05-10T12:07:20.035Z,9.98
2023-05-10T12:10:08.121Z,11.52
2023-05-10T12:12:49.336Z,6.50
2023-05-10T12:15:23.648Z,5.38
2023-05-10T12:17:52.889Z,6.10
2023-05-10T12:20:25.465Z,7.97
2023-05-10T12:22:55.544Z,8.77
2023-05-10T12:25:24.756Z,6.20
2023-05-10T12:30:43.027Z,5.15
2023-05-10T12:33:12.672Z,6.63
2023-05-10T12:36:01.138Z,9.30
2023-05-10T12:38:39.565Z,10.70
2023-05-10T12:41:08.967Z,5.07
2023-05-10T12:43:37.257Z,9.60
2023-05-10T12:46:16.193Z,6.65
2023-05-10T12:48:44.998Z,5.22
2023-05-10T12:51:18.389Z,5.77
2023-05-10T12:53:49.733Z,5.53
2023-05-10T12:56:17.018Z,4.90
2023-05-10T12:58:49.195Z,7.57
2023-05-10T13:01:16.568Z,7.85
2023-05-10T13:03:44.397Z,5.72
2023-05-10T13:06:11.421Z,4.35
2023-05-10T13:08:38.383Z,5.13
2023-05-10T13:11:05.619Z,5.57
2023-05-10T13:13:32.718Z,4.95
2023-05-10T13:15:59.728Z,5.43
2023-05-10T13:18:27.770Z,5.22
2023-05-10T13:20:55.396Z,4.95
2023-05-10T13:23:22.473Z,6.57
2023-05-10T13:25:49.481Z,5.28
2023-05-10T13:28:16.468Z,6.20
2023-05-10T13:30:43.651Z,7.45
2023-05-10T13:33:11.204Z,6.03
2023-05-10T13:35:38.246Z,6.18
2023-05-10T13:38:05.270Z,8.57
2023-05-10T13:40:32.396Z,7.07
2023-05-10T13:42:59.488Z,5.63
2023-05-10T13:45:26.601Z,6.00
2023-05-10T13:47:53.592Z,8.10
2023-05-10T13:50:20.908Z,6.28
2023-05-10T13:52:47.911Z,6.25
2023-05-10T13:55:15.485Z,7.78
2023-05-10T13:57:43.877Z,4.95
2023-05-10T14:00:11.438Z,5.13
2023-05-10T14:02:38.514Z,8.15
2023-05-10T14:05:05.996Z,7.80
2023-05-10T14:07:32.978Z,8.80
2023-05-10T14:10:00.038Z,6.20
2023-05-10T14:12:27.112Z,8.52
2023-05-10T14:14:54.057Z,9.02
2023-05-10T14:17:21.016Z,11.57
2023-05-10T14:19:48.171Z,6.95
2023-05-10T14:22:15.230Z,7.22
2023-05-10T14:24:42.424Z,11.93
2023-05-10T14:27:09.485Z,5.05
2023-05-10T14:29:36.971Z,8.70
2023-05-10T14:32:04.039Z,6.60
2023-05-10T14:34:31.039Z,5.00
2023-05-10T14:36:57.975Z,9.20
2023-05-10T14:39:24.997Z,8.98
2023-05-10T14:41:53.286Z,5.50
2023-05-10T14:44:20.598Z,6.03
2023-05-10T14:46:48.329Z,7.85
2023-05-10T14:49:15.508Z,8.18
2023-05-10T14:51:42.605Z,9.05
2023-05-10T14:54:09.556Z,7.95
2023-05-10T14:56:38.370Z,8.80
2023-05-10T14:59:05.398Z,10.25
2023-05-10T15:01:34.054Z,6.90
2023-05-10T15:04:01.804Z,8.57
2023-05-10T15:06:34.048Z,8.73
2023-05-10T15:09:02.258Z,12.52
2023-05-10T15:11:30.075Z,8.45
2023-05-10T15:13:57.044Z,7.47
2023-05-10T15:16:24.144Z,12.63
2023-05-10T15:18:51.437Z,12.65
2023-05-10T15:21:18.489Z,12.93
2023-05-10T15:23:45.583Z,6.78
2023-05-10T15:26:12.680Z,9.23
2023-05-10T15:28:39.733Z,9.10
2023-05-10T15:31:06.959Z,7.68
2023-05-10T15:33:34.092Z,9.70
2023-05-10T15:36:01.081Z,9.98
2023-05-10T15:38:28.167Z,8.35
2023-05-10T15:40:58.521Z,8.40
2023-05-10T15:43:25.726Z,8.00
2023-05-10T15:45:52.737Z,11.88
2023-05-10T15:48:19.792Z,10.68
2023-05-10T15:50:46.808Z,12.95
2023-05-10T15:53:13.929Z,8.48
2023-05-10T15:55:41.246Z,11.93
2023-05-10T15:58:08.329Z,12.48
2023-05-10T16:00:35.966Z,8.00
2023-05-10T16:03:03.274Z,6.15
2023-05-10T16:05:33.623Z,10.48
2023-05-10T16:08:03.170Z,7.45
2023-05-10T16:10:33.410Z,8.73
2023-05-10T16:13:00.740Z,8.82
2023-05-10T16:15:28.019Z,10.43
2023-05-10T16:17:55.417Z,5.15
2023-05-10T16:20:22.511Z,9.95
2023-05-10T16:22:49.763Z,11.13
2023-05-10T16:25:17.301Z,6.95
2023-05-10T16:27:44.686Z,8.90
2023-05-10T16:30:12.056Z,9.30
2023-05-10T16:32:39.116Z,7.45
2023-05-10T16:35:06.850Z,7.95
2023-05-10T16:37:33.900Z,6.53
2023-05-10T16:40:00.940Z,8.50
2023-05-10T16:42:28.276Z,7.18
2023-05-10T16:44:55.348Z,8.57
2023-05-10T16:47:22.401Z,5.57
2023-05-10T16:49:49.478Z,5.45
2023-05-10T16:52:16.690Z,6.15
2023-05-10T16:54:43.725Z,4.82
2023-05-10T16:57:10.888Z,10.13
2023-05-10T16:59:38.435Z,7.32
2023-05-10T17:02:05.575Z,7.47
2023-05-10T17:04:32.675Z,8.77
2023-05-10T17:06:59.631Z,10.27
2023-05-10T17:09:26.782Z,7.95
2023-05-10T17:11:53.734Z,8.18
2023-05-10T17:14:20.757Z,8.45
2023-05-10T17:16:48.639Z,8.75
2023-05-10T17:19:15.759Z,7.15
2023-05-10T17:21:42.819Z,6.78
2023-05-10T17:24:09.948Z,9.82
2023-05-10T17:26:37.324Z,10.98
2023-05-10T17:29:04.361Z,10.30
2023-05-10T17:31:32.716Z,13.65
2023-05-10T17:34:01.051Z,12.63
2023-05-10T17:36:29.530Z,20.20
2023-05-10T17:38:56.580Z,18.77
2023-05-10T17:41:23.650Z,20.30
2023-05-10T17:43:50.757Z,19.10
2023-05-10T17:46:23.912Z,14.93
2023-05-10T17:48:50.985Z,14.13
2023-05-10T17:51:19.163Z,12.98
2023-05-10T17:53:46.216Z,18.60
2023-05-10T17:56:13.577Z,14.88
2023-05-10T17:58:40.617Z,14.00
2023-05-10T18:01:07.780Z,10.95
2023-05-10T18:03:36.150Z,13.65
2023-05-10T18:06:04.520Z,12.90
2023-05-10T18:08:31.855Z,10.25
2023-05-10T18:11:01.345Z,7.35
2023-05-10T18:13:29.247Z,20.23
2023-05-10T18:15:56.429Z,16.10
2023-05-10T18:18:23.476Z,23.02
2023-05-10T18:20:56.606Z,16.38
2023-05-10T18:23:24.742Z,10.73
2023-05-10T18:25:52.213Z,13.10
2023-05-10T18:28:19.267Z,14.05
2023-05-10T18:30:46.420Z,11.32
2023-05-10T18:33:13.790Z,15.30
2023-05-10T18:35:41.146Z,12.05
2023-05-10T18:38:09.928Z,12.23
2023-05-10T18:40:37.211Z,16.15
2023-05-10T18:43:04.428Z,15.32
2023-05-10T18:45:31.801Z,10.65
2023-05-10T18:47:59.008Z,9.80
2023-05-10T18:50:26.108Z,16.83
2023-05-10T18:52:54.173Z,15.68
2023-05-10T18:55:21.183Z,13.80
2023-05-10T18:57:48.371Z,15.40
2023-05-10T19:00:15.565Z,14.07
2023-05-10T19:02:43.092Z,13.40
2023-05-10T19:05:10.449Z,9.75
2023-05-10T19:07:39.576Z,9.88
2023-05-10T19:10:07.164Z,9.85
2023-05-10T19:12:34.326Z,12.93
2023-05-10T19:15:01.335Z,7.13
2023-05-10T19:17:28.423Z,11.82
2023-05-10T19:19:56.997Z,7.90
2023-05-10T19:22:35.977Z,12.07
2023-05-10T19:25:11.674Z,10.40
2023-05-10T19:27:38.811Z,10.77
2023-05-10T19:30:07.438Z,9.70
2023-05-10T19:32:35.002Z,10.15
2023-05-10T19:35:02.085Z,8.93
2023-05-10T19:37:33.528Z,7.28
2023-05-10T19:40:00.477Z,17.83
2023-05-10T19:42:27.552Z,13.95
2023-05-10T19:44:55.065Z,10.15
2023-05-10T19:47:22.017Z,8.20
2023-05-10T19:49:49.061Z,9.30
2023-05-10T19:52:16.266Z,9.27
2023-05-10T19:54:44.951Z,9.32
2023-05-10T19:57:13.444Z,10.57
2023-05-10T19:59:41.251Z,9.15
2023-05-10T20:02:08.320Z,10.80
2023-05-10T20:04:35.481Z,8.60
2023-05-10T20:07:02.535Z,11.70
2023-05-10T20:09:29.471Z,15.63
2023-05-10T20:11:56.698Z,12.35
2023-05-10T20:14:23.672Z,14.98
2023-05-10T20:16:50.707Z,11.57
2023-05-10T20:19:17.737Z,12.70
2023-05-10T20:21:44.747Z,21.45
2023-05-10T20:24:11.917Z,13.50
2023-05-10T20:26:38.921Z,12.00
2023-05-10T20:29:06.133Z,16.35
2023-05-10T20:31:33.432Z,13.20
2023-05-10T20:34:00.601Z,15.32
2023-05-10T20:36:27.715Z,16.20
2023-05-10T20:38:54.695Z,16.63
2023-05-10T20:41:21.642Z,10.27
2023-05-10T20:43:48.671Z,14.32
2023-05-10T20:46:15.939Z,13.55
2023-05-10T20:48:42.969Z,13.48
2023-05-10T20:51:10.133Z,17.15
2023-05-10T20:53:37.199Z,14.73
2023-05-10T20:56:04.187Z,15.70
2023-05-10T20:58:31.117Z,15.32
2023-05-10T21:00:58.110Z,11.25
2023-05-10T21:03:25.216Z,14.30
2023-05-10T21:05:53.640Z,11.68
2023-05-10T21:08:20.962Z,13.38
2023-05-10T21:10:48.097Z,10.38
2023-05-10T21:13:15.434Z,16.17
2023-05-10T21:15:43.456Z,21.48
2023-05-10T21:18:10.495Z,11.13
2023-05-10T21:20:37.490Z,20.50
2023-05-10T21:23:04.539Z,15.30
2023-05-10T21:25:31.613Z,12.50
2023-05-10T21:27:58.679Z,20.33
2023-05-10T21:30:25.852Z,17.73
2023-05-10T21:32:54.018Z,38.53
2023-05-10T21:35:21.137Z,26.73
2023-05-10T21:37:48.154Z,29.75
2023-05-10T21:40:15.735Z,30.38
2023-05-10T21:42:43.061Z,26.75
2023-05-10T21:45:10.430Z,28.65
2023-05-10T21:47:37.508Z,33.15
2023-05-10T21:50:04.740Z,27.58
2023-05-10T21:52:31.719Z,32.83
2023-05-10T21:54:58.929Z,34.83
2023-05-10T21:57:26.027Z,34.28
2023-05-10T21:59:53.064Z,37.47
2023-05-10T22:02:20.081Z,31.55
2023-05-10T22:04:47.162Z,32.75
2023-05-10T22:07:16.611Z,26.42
2023-05-10T22:09:44.028Z,27.38
2023-05-10T22:12:11.621Z,29.52
2023-05-10T22:14:38.767Z,31.00
2023-05-10T22:17:05.985Z,29.75
2023-05-10T22:19:33.216Z,26.77
2023-05-10T22:22:00.229Z,26.40
2023-05-10T22:24:27.408Z,29.70
2023-05-10T22:26:56.209Z,25.88
2023-05-10T22:29:23.979Z,27.65
2023-05-10T22:31:51.309Z,26.02
2023-05-10T22:34:18.916Z,24.10
2023-05-10T22:36:46.735Z,33.17
2023-05-10T22:39:13.693Z,25.25
2023-05-10T22:41:40.666Z,24.13
2023-05-10T22:44:08.371Z,22.88
2023-05-10T22:46:37.160Z,21.00
2023-05-10T22:49:04.322Z,25.30
2023-05-10T22:51:31.370Z,26.38
2023-05-10T22:53:58.367Z,25.73
2023-05-10T22:56:25.790Z,24.67
2023-05-10T22:58:52.771Z,25.80
2023-05-10T23:01:20.409Z,26.13
2023-05-10T23:03:47.450Z,22.42
2023-05-10T23:06:14.525Z,28.05
2023-05-10T23:08:41.456Z,24.42
2023-05-10T23:11:08.457Z,24.42
2023-05-10T23:13:35.540Z,32.58
2023-05-10T23:16:06.760Z,21.50
2023-05-10T23:18:33.963Z,22.15
2023-05-10T23:21:01.143Z,22.35
2023-05-10T23:23:28.216Z,22.85
2023-05-10T23:25:55.249Z,22.38
2023-05-10T23:28:22.244Z,26.60
2023-05-10T23:30:55.803Z,26.15
2023-05-10T23:33:23.438Z,21.13
2023-05-10T23:35:50.790Z,20.13
2023-05-10T23:38:17.881Z,23.58
2023-05-10T23:40:49.665Z,19.10
2023-05-10T23:43:17.861Z,15.73
2023-05-10T23:45:53.770Z,15.25
2023-05-10T23:48:23.984Z,20.23
2023-05-10T23:50:52.029Z,22.08
2023-05-10T23:53:19.100Z,26.40
2023-05-10T23:55:46.156Z,17.80
2023-05-10T23:58:13.199Z,20.48
